createdAt,value
2023-04-27T00:02:21.049Z,5.50
2023-04-27T00:04:48.352Z,5.48
2023-04-27T00:07:17.744Z,5.45
2023-04-27T00:09:44.479Z,5.43
2023-04-27T00:12:11.624Z,5.39
2023-04-27T00:14:38.180Z,5.38
2023-04-27T00:17:04.758Z,5.34
2023-04-27T00:19:31.854Z,5.33
2023-04-27T00:22:01.181Z,5.32
2023-04-27T00:24:28.101Z,5.32
2023-04-27T00:26:54.639Z,5.31
2023-04-27T00:29:21.210Z,5.29
2023-04-27T00:31:48.886Z,5.28
2023-04-27T00:34:15.345Z,5.26
2023-04-27T00:36:49.528Z,5.25
2023-04-27T00:39:16.428Z,5.24
2023-04-27T00:41:43.315Z,5.25
2023-04-27T00:44:12.259Z,5.26
2023-04-27T00:46:38.935Z,5.28
2023-04-27T00:49:07.389Z,5.30
2023-04-27T00:51:37.536Z,5.28
2023-04-27T00:54:07.026Z,5.27
2023-04-27T00:56:39.004Z,5.26
2023-04-27T00:59:10.340Z,5.26
2023-04-27T01:01:39.152Z,5.24
2023-04-27T01:04:06.272Z,5.23
2023-04-27T01:06:33.767Z,5.23
2023-04-27T01:09:01.885Z,5.21
2023-04-27T01:46:16.399Z,5.04
2023-04-27T01:48:45.951Z,4.98
2023-04-27T01:51:14.807Z,4.93
2023-04-27T01:53:41.719Z,4.88
2023-04-27T01:56:09.674Z,4.84
2023-04-27T01:58:38.343Z,4.80
2023-04-27T02:01:04.871Z,4.76
2023-04-27T02:03:33.905Z,4.75
2023-04-27T02:06:03.149Z,4.71
2023-04-27T02:08:34.171Z,4.68
2023-04-27T02:11:03.171Z,4.67
2023-04-27T02:13:29.737Z,4.65
2023-04-27T02:16:02.635Z,4.60
2023-04-27T02:18:33.032Z,4.58
2023-04-27T02:20:59.426Z,4.55
2023-04-27T02:23:31.044Z,4.54
2023-04-27T02:26:05.531Z,4.52
2023-04-27T02:28:32.313Z,4.49
2023-04-27T02:31:02.625Z,4.47
2023-04-27T02:33:29.332Z,4.44
2023-04-27T02:35:57.252Z,4.42
2023-04-27T02:38:23.859Z,4.40
2023-04-27T02:40:56.189Z,4.36
2023-04-27T02:43:25.098Z,4.37
2023-04-27T02:45:56.602Z,4.36
2023-04-27T02:48:26.126Z,4.35
2023-04-27T02:50:52.553Z,4.34
2023-04-27T02:53:21.410Z,4.33
2023-04-27T02:55:53.065Z,4.31
2023-04-27T02:58:22.024Z,4.29
2023-04-27T03:00:54.988Z,4.24
2023-04-27T03:03:22.585Z,4.24
2023-04-27T03:05:49.436Z,4.23
2023-04-27T03:08:15.936Z,4.21
2023-04-27T03:10:42.549Z,4.19
2023-04-27T03:13:11.173Z,4.18
2023-04-27T03:15:40.479Z,4.16
2023-04-27T03:18:19.575Z,4.14
2023-04-27T03:21:18.062Z,4.13
2023-04-27T03:23:51.511Z,4.11
2023-04-27T03:26:18.206Z,4.08
2023-04-27T03:28:44.766Z,4.05
2023-04-27T03:31:16.037Z,4.05
2023-04-27T03:33:42.711Z,4.05
2023-04-27T03:36:14.782Z,4.05
2023-04-27T03:38:41.972Z,4.04
2023-04-27T03:41:12.957Z,4.03
2023-04-27T03:43:41.735Z,4.03
2023-04-27T03:46:08.530Z,4.01
2023-04-27T03:48:35.971Z,3.99
2023-04-27T03:51:02.833Z,3.97
2023-04-27T03:53:31.759Z,3.96
2023-04-27T03:56:03.827Z,3.93
2023-04-27T03:58:32.904Z,3.93
2023-04-27T04:01:18.231Z,3.92
2023-04-27T04:03:45.528Z,3.91
2023-04-27T04:06:12.418Z,3.90
2023-04-27T04:08:41.502Z,3.89
2023-04-27T04:11:08.452Z,3.88
2023-04-27T04:13:35.951Z,3.88
2023-04-27T04:16:06.371Z,3.86
2023-04-27T04:18:34.191Z,3.86
2023-04-27T04:21:01.193Z,3.86
2023-04-27T04:23:32.119Z,3.87
2023-04-27T04:26:03.535Z,3.88
2023-04-27T04:28:36.464Z,3.89
2023-04-27T04:31:08.939Z,3.91
2023-04-27T04:33:35.672Z,3.93
2023-04-27T04:36:05.348Z,3.97
2023-04-27T04:38:33.231Z,4.00
2023-04-27T04:41:06.703Z,4.02
2023-04-27T04:43:41.947Z,4.05
2023-04-27T04:46:08.610Z,4.08
2023-04-27T04:48:36.280Z,4.10
2023-04-27T04:51:05.673Z,4.11
2023-04-27T04:53:34.827Z,4.10
2023-04-27T04:56:12.260Z,4.08
2023-04-27T04:59:06.765Z,4.11
2023-04-27T05:01:38.880Z,4.14
2023-04-27T05:04:06.029Z,4.15
2023-04-27T05:06:33.231Z,4.17
2023-04-27T05:09:00.260Z,4.18
2023-04-27T05:11:26.811Z,4.21
2023-04-27T05:13:55.734Z,4.24
2023-04-27T05:16:25.905Z,4.30
2023-04-27T05:18:54.141Z,4.35
2023-04-27T05:21:21.548Z,4.50
2023-04-27T06:02:02.042Z,6.66
2023-04-27T06:04:29.273Z,6.60
2023-04-27T06:07:00.705Z,6.61
2023-04-27T06:09:29.499Z,6.60
2023-04-27T06:12:02.179Z,6.66
2023-04-27T06:14:28.897Z,6.72
2023-04-27T06:17:00.317Z,6.70
2023-04-27T06:19:30.638Z,6.72
2023-04-27T06:21:57.543Z,6.71
2023-04-27T06:24:29.048Z,6.74
2023-04-27T06:26:56.435Z,6.86
2023-04-27T06:29:27.568Z,7.01
2023-04-27T06:31:54.397Z,7.13
2023-04-27T06:34:20.980Z,7.25
2023-04-27T06:36:51.435Z,7.42
2023-04-27T06:39:43.328Z,7.52
2023-04-27T06:42:21.680Z,7.64
2023-04-27T06:44:48.908Z,7.69
2023-04-27T07:56:32.626Z,9.45
2023-04-27T07:58:59.872Z,9.50
2023-04-27T08:01:26.656Z,9.56
2023-04-27T08:03:54.207Z,9.63
2023-04-27T08:06:22.017Z,9.70
2023-04-27T08:08:49.176Z,9.71
2023-04-27T08:11:16.121Z,9.69
2023-04-27T08:13:45.298Z,9.66
2023-04-27T08:16:16.766Z,9.59
2023-04-27T08:18:50.288Z,9.57
2023-04-27T08:21:19.757Z,9.65
2023-04-27T08:23:46.348Z,9.81
2023-04-27T08:26:18.316Z,9.88
2023-04-27T08:28:48.565Z,9.89
2023-04-27T08:31:21.426Z,9.80
2023-04-27T08:33:52.703Z,10.02
2023-04-27T08:36:23.758Z,10.33
2023-04-27T08:38:53.159Z,10.47
2023-04-27T08:41:22.223Z,10.47
2023-04-27T08:43:54.461Z,10.51
2023-04-27T08:46:26.403Z,10.67
2023-04-27T08:48:53.861Z,10.71
2023-04-27T08:51:27.028Z,10.89
2023-04-27T08:53:57.812Z,11.15
2023-04-27T08:56:32.094Z,11.34
2023-04-27T08:59:00.152Z,11.54
2023-04-27T09:01:26.869Z,11.48
2023-04-27T09:04:01.963Z,11.41
2023-04-27T09:06:35.026Z,11.30
2023-04-27T09:09:02.532Z,11.15
2023-04-27T09:11:30.866Z,11.25
2023-04-27T09:13:59.674Z,11.38
2023-04-27T09:16:30.016Z,11.31
2023-04-27T09:18:57.879Z,11.08
2023-04-27T09:21:28.886Z,10.81
2023-04-27T09:23:56.238Z,10.70
2023-04-27T09:26:25.321Z,10.64
2023-04-27T09:28:55.141Z,10.51
2023-04-27T09:31:22.210Z,10.43
2023-04-27T09:33:55.449Z,10.32
2023-04-27T09:36:24.704Z,10.27
2023-04-27T09:38:51.953Z,10.22
2023-04-27T09:41:19.197Z,10.13
2023-04-27T09:43:48.386Z,10.01
2023-04-27T09:46:15.579Z,9.99
2023-04-27T09:48:42.157Z,9.95
2023-04-27T09:51:08.732Z,9.95
2023-04-27T09:53:52.091Z,9.95
2023-04-27T09:56:57.302Z,9.90
2023-04-27T10:00:10.092Z,9.89
2023-04-27T10:02:53.593Z,9.91
2023-04-27T10:05:48.157Z,9.93
2023-04-27T10:08:14.966Z,9.93
2023-04-27T10:10:52.638Z,9.95
2023-04-27T10:13:24.045Z,9.93
2023-04-27T10:15:53.299Z,9.93
2023-04-27T10:18:32.883Z,9.94
2023-04-27T10:21:12.091Z,9.92
2023-04-27T10:23:47.658Z,9.87
2023-04-27T10:26:24.303Z,9.82
2023-04-27T10:29:03.833Z,9.83
2023-04-27T10:31:30.598Z,9.84
2023-04-27T10:34:08.275Z,9.81
2023-04-27T10:36:38.981Z,9.73
2023-04-27T10:39:25.571Z,9.72
2023-04-27T10:42:01.606Z,9.67
2023-04-27T10:44:30.757Z,9.61
2023-04-27T10:46:59.912Z,9.55
2023-04-27T10:49:29.554Z,9.55
2023-04-27T10:52:03.975Z,9.50
2023-04-27T10:54:31.287Z,9.49
2023-04-27T10:57:08.611Z,9.48
2023-04-27T11:55:35.352Z,11.78
2023-04-27T11:58:02.153Z,11.88
2023-04-27T12:00:28.878Z,11.82
2023-04-27T12:02:58.162Z,11.88
2023-04-27T12:05:27.965Z,11.90
2023-04-27T12:07:59.616Z,11.79
2023-04-27T12:10:28.668Z,11.74
2023-04-27T12:12:55.357Z,11.90
2023-04-27T12:15:21.950Z,12.10
2023-04-27T12:17:53.254Z,12.06
2023-04-27T12:20:20.449Z,11.82
2023-04-27T13:00:26.023Z,9.54
2023-04-27T13:27:22.538Z,9.42
2023-04-27T14:17:00.575Z,10.04
2023-04-27T14:19:34.394Z,10.05
2023-04-27T14:22:09.628Z,10.00
2023-04-27T14:24:40.185Z,10.00
2023-04-27T14:27:08.794Z,9.90
2023-04-27T14:29:39.668Z,9.91
2023-04-27T14:32:09.411Z,9.94
2023-04-27T14:34:42.864Z,9.93
2023-04-27T14:37:13.387Z,9.97
2023-04-27T14:39:45.383Z,9.98
2023-04-27T14:42:13.959Z,9.98
2023-04-27T14:44:44.424Z,10.04
2023-04-27T14:47:15.253Z,10.10
2023-04-27T16:06:04.269Z,9.77
2023-04-27T16:08:37.215Z,9.78
2023-04-27T16:11:13.166Z,9.76
2023-04-27T16:13:41.858Z,9.70
2023-04-27T16:16:12.294Z,9.66
2023-04-27T16:18:40.349Z,9.66
2023-04-27T16:21:08.417Z,9.64
2023-04-27T16:23:39.140Z,9.62
2023-04-27T16:26:07.158Z,9.59
2023-04-27T16:28:39.968Z,9.56
2023-04-27T16:31:10.943Z,9.52
2023-04-27T16:33:41.257Z,9.55
2023-04-27T16:36:11.820Z,9.52
2023-04-27T16:38:42.363Z,9.50
2023-04-27T16:56:13.748Z,9.47
2023-04-27T16:58:50.935Z,9.50
2023-04-27T17:38:32.831Z,9.13
2023-04-27T17:41:01.180Z,9.09
2023-04-27T17:43:31.778Z,9.08
2023-04-27T17:46:10.554Z,9.06
2023-04-27T17:48:42.234Z,9.05
2023-04-27T17:51:13.011Z,9.05
2023-04-27T17:53:42.780Z,9.05
2023-04-27T17:56:19.581Z,9.04
2023-04-27T17:58:47.894Z,9.01
2023-04-27T18:01:21.932Z,8.99
2023-04-27T18:17:23.061Z,8.78
2023-04-27T18:20:07.025Z,8.75
2023-04-27T18:22:37.904Z,8.72
2023-04-27T18:25:09.312Z,8.67
2023-04-27T18:27:37.899Z,8.66
2023-04-27T18:30:09.093Z,8.67
2023-04-27T18:32:37.888Z,8.66
2023-04-27T18:35:08.483Z,8.65
2023-04-27T18:37:38.723Z,8.65
2023-04-27T18:40:08.235Z,8.64
2023-04-27T18:42:37.039Z,8.61
2023-04-27T18:45:05.876Z,8.59
2023-04-27T18:47:34.164Z,8.58
2023-04-27T18:50:02.340Z,8.57
2023-04-27T18:52:30.868Z,8.54
2023-04-27T18:54:59.253Z,8.52
2023-04-27T18:57:27.575Z,8.51
2023-04-27T18:59:56.217Z,8.49
2023-04-27T19:02:26.076Z,8.46
2023-04-27T19:05:10.894Z,8.44
2023-04-27T19:07:40.358Z,8.40
2023-04-27T19:10:09.304Z,8.38
2023-04-27T19:12:40.590Z,8.37
2023-04-27T19:15:09.429Z,8.33
2023-04-27T19:17:40.886Z,8.32
2023-04-27T19:20:09.743Z,8.29
2023-04-27T19:22:39.975Z,8.27
2023-04-27T19:25:11.309Z,8.23
2023-04-27T19:27:41.463Z,8.21
2023-04-27T19:30:14.110Z,8.19
2023-04-27T19:32:43.535Z,8.14
2023-04-27T19:35:14.897Z,8.12
2023-04-27T19:37:43.510Z,8.10
2023-04-27T19:40:19.133Z,8.07
2023-04-27T19:42:49.981Z,8.05
2023-04-27T19:45:22.192Z,8.03
2023-04-27T19:47:50.548Z,8.00
2023-04-27T19:50:23.248Z,7.97
2023-04-27T19:52:52.214Z,7.93
2023-04-27T19:55:20.489Z,7.91
2023-04-27T19:57:48.558Z,7.88
2023-04-27T20:00:18.812Z,7.86
2023-04-27T20:02:46.826Z,7.85
2023-04-27T20:05:15.610Z,7.82
2023-04-27T20:07:44.267Z,7.79
2023-04-27T20:10:16.084Z,7.76
2023-04-27T20:12:55.462Z,7.74
2023-04-27T20:15:24.799Z,7.72
2023-04-27T20:17:53.382Z,7.69
2023-04-27T20:20:23.932Z,7.67
2023-04-27T20:22:51.979Z,7.66
2023-04-27T20:25:21.007Z,7.64
2023-04-27T20:27:51.418Z,7.61
2023-04-27T20:30:23.180Z,7.59
2023-04-27T20:32:51.338Z,7.59
2023-04-27T20:35:19.916Z,7.58
2023-04-27T20:37:48.327Z,7.54
2023-04-27T20:40:19.032Z,7.53
2023-04-27T20:42:51.960Z,7.50
2023-04-27T20:45:20.141Z,7.47
2023-04-27T20:47:48.260Z,7.45
2023-04-27T20:50:19.073Z,7.42
2023-04-27T20:52:47.588Z,7.40
2023-04-27T20:55:15.594Z,7.38
2023-04-27T20:57:43.942Z,7.36
2023-04-27T21:00:15.827Z,7.35
2023-04-27T21:02:44.235Z,7.35
2023-04-27T21:05:12.608Z,7.32
2023-04-27T21:07:40.806Z,7.31
2023-04-27T21:10:09.022Z,7.31
2023-04-27T21:12:37.105Z,7.30
2023-04-27T21:15:05.870Z,7.29
2023-04-27T21:17:34.085Z,7.28
2023-04-27T21:20:04.566Z,7.28
2023-04-27T21:22:32.886Z,7.28
2023-04-27T21:25:01.283Z,7.24
2023-04-27T21:27:29.361Z,7.23
2023-04-27T21:29:58.840Z,7.23
2023-04-27T21:32:29.391Z,7.22
2023-04-27T21:34:59.686Z,7.20
2023-04-27T21:37:30.544Z,7.19
2023-04-27T21:40:00.768Z,7.15
2023-04-27T21:42:28.651Z,7.13
2023-04-27T21:44:56.959Z,7.11
2023-04-27T21:47:24.952Z,7.06
2023-04-27T21:49:53.138Z,7.05
2023-04-27T21:52:26.180Z,7.04
2023-04-27T21:54:56.816Z,7.03
2023-04-27T21:57:24.727Z,7.02
2023-04-27T21:59:57.758Z,7.02
2023-04-27T22:02:30.855Z,7.00
2023-04-27T22:05:02.583Z,6.99
2023-04-27T22:07:32.593Z,6.99
2023-04-27T22:10:00.759Z,6.97
2023-04-27T22:12:28.782Z,6.96
2023-04-27T22:14:56.733Z,6.95
2023-04-27T22:17:25.127Z,6.94
2023-04-27T22:19:55.721Z,6.91
2023-04-27T22:22:23.707Z,6.89
2023-04-27T22:24:53.987Z,6.88
2023-04-27T22:27:21.881Z,6.88
2023-04-27T22:29:50.231Z,6.86
2023-04-27T22:32:18.210Z,6.84
2023-04-27T22:34:46.411Z,6.78
2023-04-27T22:37:16.887Z,6.72
2023-04-27T22:39:47.160Z,6.67
2023-04-27T22:43:18.317Z,6.60
2023-04-27T22:45:46.477Z,6.53
2023-04-27T22:48:14.778Z,6.49
2023-04-27T22:50:43.027Z,6.48
2023-04-27T22:53:10.856Z,6.45
2023-04-27T22:55:41.142Z,6.45
2023-04-27T22:58:09.175Z,6.45
2023-04-27T23:00:37.013Z,6.44
2023-04-27T23:03:11.424Z,6.41
2023-04-27T23:05:42.533Z,6.39
2023-04-27T23:08:10.786Z,6.35
2023-04-27T23:10:38.961Z,6.33
2023-04-27T23:13:12.849Z,6.31
2023-04-27T23:15:43.210Z,6.28
2023-04-27T23:18:11.340Z,6.25
2023-04-27T23:20:39.263Z,6.22
2023-04-27T23:23:09.868Z,6.21
2023-04-27T23:25:37.737Z,6.18
2023-04-27T23:28:10.598Z,6.14
2023-04-27T23:30:38.514Z,6.11
2023-04-27T23:33:11.160Z,6.06
2023-04-27T23:35:41.737Z,6.03
2023-04-27T23:38:12.097Z,6.00
2023-04-27T23:40:42.598Z,5.98
2023-04-27T23:43:13.195Z,5.95
2023-04-27T23:45:41.260Z,5.90
2023-04-27T23:48:11.987Z,5.86
2023-04-27T23:50:42.599Z,5.85
2023-04-27T23:53:15.520Z,5.82
2023-04-27T23:55:46.254Z,5.81
2023-04-27T23:58:18.677Z,5.78
